sensor_id;sensor_type;location;lat;lon;timestamp;P1;durP1;ratioP1;P2;durP2;ratioP2
21800;SDS011;11062;51.164;16.924;2023-02-28T00:00:09;89.45;;;38.58;;
21800;SDS011;11062;51.164;16.924;2023-02-28T00:02:40;75.60;;;36.60;;
21800;SDS011;11062;51.164;16.924;2023-02-28T00:05:08;77.30;;;37.72;;
21800;SDS011;11062;51.164;16.924;2023-02-28T00:07:35;75.18;;;36.95;;
21800;SDS011;11062;51.164;16.924;2023-02-28T00:10:02;78.07;;;38.55;;
21800;SDS011;11062;51.164;16.924;2023-02-28T00:12:31;86.47;;;39.33;;
21800;SDS011;11062;51.164;16.924;2023-02-28T00:14:57;73.80;;;36.85;;
21800;SDS011;11062;51.164;16.924;2023-02-28T00:17:23;79.47;;;37.33;;
21800;SDS011;11062;51.164;16.924;2023-02-28T00:19:51;73.00;;;37.97;;
21800;SDS011;11062;51.164;16.924;2023-02-28T00:22:18;74.63;;;35.65;;
21800;SDS011;11062;51.164;16.924;2023-02-28T00:24:46;65.43;;;32.70;;
21800;SDS011;11062;51.164;16.924;2023-02-28T00:27:13;57.35;;;28.48;;
21800;SDS011;11062;51.164;16.924;2023-02-28T00:29:40;67.20;;;29.40;;
21800;SDS011;11062;51.164;16.924;2023-02-28T00:32:08;61.03;;;29.80;;
21800;SDS011;11062;51.164;16.924;2023-02-28T00:34:36;61.60;;;27.02;;
21800;SDS011;11062;51.164;16.924;2023-02-28T00:37:05;57.92;;;27.20;;
21800;SDS011;11062;51.164;16.924;2023-02-28T00:39:33;58.30;;;28.23;;
21800;SDS011;11062;51.164;16.924;2023-02-28T00:42:00;54.70;;;26.73;;
21800;SDS011;11062;51.164;16.924;2023-02-28T00:44:27;47.80;;;25.77;;
21800;SDS011;11062;51.164;16.924;2023-02-28T00:46:56;53.45;;;26.10;;
21800;SDS011;11062;51.164;16.924;2023-02-28T00:49:23;42.88;;;23.50;;
21800;SDS011;11062;51.164;16.924;2023-02-28T00:51:52;39.15;;;21.25;;
21800;SDS011;11062;51.164;16.924;2023-02-28T00:54:22;41.22;;;21.23;;
21800;SDS011;11062;51.164;16.924;2023-02-28T00:56:54;42.00;;;22.23;;
21800;SDS011;11062;51.164;16.924;2023-02-28T00:59:20;43.35;;;22.02;;
21800;SDS011;11062;51.164;16.924;2023-02-28T01:01:46;44.78;;;22.33;;
21800;SDS011;11062;51.164;16.924;2023-02-28T01:04:13;47.30;;;22.23;;
21800;SDS011;11062;51.164;16.924;2023-02-28T01:06:39;42.60;;;21.45;;
21800;SDS011;11062;51.164;16.924;2023-02-28T01:09:06;45.55;;;24.02;;
21800;SDS011;11062;51.164;16.924;2023-02-28T01:11:33;53.85;;;27.42;;
21800;SDS011;11062;51.164;16.924;2023-02-28T01:14:00;52.90;;;24.35;;
21800;SDS011;11062;51.164;16.924;2023-02-28T01:16:26;44.55;;;21.42;;
21800;SDS011;11062;51.164;16.924;2023-02-28T01:18:52;42.53;;;20.70;;
21800;SDS011;11062;51.164;16.924;2023-02-28T01:21:19;37.50;;;19.30;;
21800;SDS011;11062;51.164;16.924;2023-02-28T01:23:46;38.88;;;19.25;;
21800;SDS011;11062;51.164;16.924;2023-02-28T01:26:21;43.10;;;20.48;;
21800;SDS011;11062;51.164;16.924;2023-02-28T01:28:48;40.00;;;18.80;;
21800;SDS011;11062;51.164;16.924;2023-02-28T01:31:16;38.65;;;19.05;;
21800;SDS011;11062;51.164;16.924;2023-02-28T01:33:43;38.83;;;19.83;;
21800;SDS011;11062;51.164;16.924;2023-02-28T01:36:10;34.80;;;18.02;;
21800;SDS011;11062;51.164;16.924;2023-02-28T01:38:42;37.80;;;18.35;;
21800;SDS011;11062;51.164;16.924;2023-02-28T01:41:09;35.80;;;17.65;;
21800;SDS011;11062;51.164;16.924;2023-02-28T01:46:12;37.60;;;18.40;;
21800;SDS011;11062;51.164;16.924;2023-02-28T01:49:00;38.38;;;18.23;;
21800;SDS011;11062;51.164;16.924;2023-02-28T01:51:32;38.20;;;17.75;;
21800;SDS011;11062;51.164;16.924;2023-02-28T01:54:12;38.45;;;17.63;;
21800;SDS011;11062;51.164;16.924;2023-02-28T01:56:44;37.50;;;19.33;;
21800;SDS011;11062;51.164;16.924;2023-02-28T01:59:29;40.25;;;21.58;;
21800;SDS011;11062;51.164;16.924;2023-02-28T02:01:59;37.72;;;20.95;;
21800;SDS011;11062;51.164;16.924;2023-02-28T02:04:27;41.80;;;19.58;;
21800;SDS011;11062;51.164;16.924;2023-02-28T02:06:59;36.05;;;17.92;;
21800;SDS011;11062;51.164;16.924;2023-02-28T02:09:25;36.75;;;17.85;;
21800;SDS011;11062;51.164;16.924;2023-02-28T02:11:51;35.35;;;18.42;;
21800;SDS011;11062;51.164;16.924;2023-02-28T02:14:42;43.72;;;19.80;;
21800;SDS011;11062;51.164;16.924;2023-02-28T02:17:25;37.28;;;18.48;;
21800;SDS011;11062;51.164;16.924;2023-02-28T02:25:56;37.65;;;20.83;;
21800;SDS011;11062;51.164;16.924;2023-02-28T02:34:37;36.83;;;18.02;;
21800;SDS011;11062;51.164;16.924;2023-02-28T02:47:55;35.28;;;17.83;;
21800;SDS011;11062;51.164;16.924;2023-02-28T02:50:25;32.20;;;17.58;;
21800;SDS011;11062;51.164;16.924;2023-02-28T02:52:57;31.70;;;17.80;;
21800;SDS011;11062;51.164;16.924;2023-02-28T02:55:26;37.95;;;18.48;;
21800;SDS011;11062;51.164;16.924;2023-02-28T02:57:54;37.35;;;18.35;;
21800;SDS011;11062;51.164;16.924;2023-02-28T03:00:26;33.70;;;18.52;;
21800;SDS011;11062;51.164;16.924;2023-02-28T03:03:01;33.03;;;18.77;;
21800;SDS011;11062;51.164;16.924;2023-02-28T03:05:50;36.53;;;20.90;;
21800;SDS011;11062;51.164;16.924;2023-02-28T03:08:15;45.88;;;21.23;;
21800;SDS011;11062;51.164;16.924;2023-02-28T03:10:43;42.22;;;20.73;;
21800;SDS011;11062;51.164;16.924;2023-02-28T03:21:45;34.03;;;18.58;;
21800;SDS011;11062;51.164;16.924;2023-02-28T03:30:26;34.05;;;18.50;;
21800;SDS011;11062;51.164;16.924;2023-02-28T03:33:07;46.92;;;21.52;;
21800;SDS011;11062;51.164;16.924;2023-02-28T03:35:41;45.97;;;21.65;;
21800;SDS011;11062;51.164;16.924;2023-02-28T03:41:19;40.20;;;18.27;;
21800;SDS011;11062;51.164;16.924;2023-02-28T03:43:50;32.53;;;18.08;;
21800;SDS011;11062;51.164;16.924;2023-02-28T03:46:23;41.33;;;18.00;;
21800;SDS011;11062;51.164;16.924;2023-02-28T03:48:57;36.33;;;18.42;;
21800;SDS011;11062;51.164;16.924;2023-02-28T03:51:40;39.92;;;18.15;;
21800;SDS011;11062;51.164;16.924;2023-02-28T03:54:09;35.35;;;18.40;;
21800;SDS011;11062;51.164;16.924;2023-02-28T03:57:02;41.08;;;19.25;;
21800;SDS011;11062;51.164;16.924;2023-02-28T03:59:48;38.50;;;18.60;;
21800;SDS011;11062;51.164;16.924;2023-02-28T04:02:31;34.13;;;18.25;;
21800;SDS011;11062;51.164;16.924;2023-02-28T04:04:58;38.88;;;18.55;;
21800;SDS011;11062;51.164;16.924;2023-02-28T04:07:28;45.58;;;20.92;;
21800;SDS011;11062;51.164;16.924;2023-02-28T04:09:55;45.17;;;22.08;;
21800;SDS011;11062;51.164;16.924;2023-02-28T04:12:25;49.03;;;23.75;;
21800;SDS011;11062;51.164;16.924;2023-02-28T04:15:06;36.78;;;19.10;;
21800;SDS011;11062;51.164;16.924;2023-02-28T04:17:33;33.67;;;18.38;;
21800;SDS011;11062;51.164;16.924;2023-02-28T04:20:02;37.10;;;17.80;;
21800;SDS011;11062;51.164;16.924;2023-02-28T04:22:42;38.75;;;20.05;;
21800;SDS011;11062;51.164;16.924;2023-02-28T04:25:16;38.38;;;19.05;;
21800;SDS011;11062;51.164;16.924;2023-02-28T04:27:45;38.60;;;18.65;;
21800;SDS011;11062;51.164;16.924;2023-02-28T04:30:11;34.75;;;19.25;;
21800;SDS011;11062;51.164;16.924;2023-02-28T04:32:56;35.33;;;18.52;;
21800;SDS011;11062;51.164;16.924;2023-02-28T04:35:30;36.95;;;18.10;;
21800;SDS011;11062;51.164;16.924;2023-02-28T04:37:57;38.83;;;19.25;;
21800;SDS011;11062;51.164;16.924;2023-02-28T04:40:26;42.08;;;21.95;;
21800;SDS011;11062;51.164;16.924;2023-02-28T04:42:54;43.15;;;22.67;;
21800;SDS011;11062;51.164;16.924;2023-02-28T04:45:23;41.08;;;18.98;;
21800;SDS011;11062;51.164;16.924;2023-02-28T04:47:49;41.40;;;18.73;;
21800;SDS011;11062;51.164;16.924;2023-02-28T04:50:18;35.35;;;17.63;;
21800;SDS011;11062;51.164;16.924;2023-02-28T04:52:44;38.10;;;17.38;;
21800;SDS011;11062;51.164;16.924;2023-02-28T04:55:10;36.20;;;17.40;;
21800;SDS011;11062;51.164;16.924;2023-02-28T04:57:36;33.30;;;18.05;;
21800;SDS011;11062;51.164;16.924;2023-02-28T05:00:02;40.83;;;18.13;;
21800;SDS011;11062;51.164;16.924;2023-02-28T05:02:34;34.58;;;16.88;;
21800;SDS011;11062;51.164;16.924;2023-02-28T05:05:00;32.50;;;16.50;;
21800;SDS011;11062;51.164;16.924;2023-02-28T05:07:27;33.15;;;16.98;;
21800;SDS011;11062;51.164;16.924;2023-02-28T05:09:53;39.33;;;17.35;;
21800;SDS011;11062;51.164;16.924;2023-02-28T05:12:19;35.25;;;17.42;;
21800;SDS011;11062;51.164;16.924;2023-02-28T05:14:45;35.67;;;17.52;;
21800;SDS011;11062;51.164;16.924;2023-02-28T05:17:11;32.38;;;16.50;;
21800;SDS011;11062;51.164;16.924;2023-02-28T05:19:37;37.88;;;16.98;;
21800;SDS011;11062;51.164;16.924;2023-02-28T05:22:03;38.22;;;17.65;;
21800;SDS011;11062;51.164;16.924;2023-02-28T05:24:29;31.52;;;16.15;;
21800;SDS011;11062;51.164;16.924;2023-02-28T05:26:55;35.08;;;16.65;;
21800;SDS011;11062;51.164;16.924;2023-02-28T05:29:21;37.47;;;16.67;;
21800;SDS011;11062;51.164;16.924;2023-02-28T05:31:47;32.20;;;16.90;;
21800;SDS011;11062;51.164;16.924;2023-02-28T05:34:13;38.83;;;17.27;;
21800;SDS011;11062;51.164;16.924;2023-02-28T05:36:40;33.90;;;16.50;;
21800;SDS011;11062;51.164;16.924;2023-02-28T05:39:07;40.67;;;17.25;;
21800;SDS011;11062;51.164;16.924;2023-02-28T05:41:37;45.10;;;20.20;;
21800;SDS011;11062;51.164;16.924;2023-02-28T05:44:04;36.45;;;17.35;;
21800;SDS011;11062;51.164;16.924;2023-02-28T05:46:30;35.00;;;16.73;;
21800;SDS011;11062;51.164;16.924;2023-02-28T05:48:56;37.67;;;17.23;;
21800;SDS011;11062;51.164;16.924;2023-02-28T05:51:25;33.05;;;17.08;;
21800;SDS011;11062;51.164;16.924;2023-02-28T05:53:51;36.60;;;17.35;;
21800;SDS011;11062;51.164;16.924;2023-02-28T05:56:17;30.42;;;16.95;;
21800;SDS011;11062;51.164;16.924;2023-02-28T05:58:42;35.05;;;15.02;;
21800;SDS011;11062;51.164;16.924;2023-02-28T06:04:17;39.28;;;16.92;;
21800;SDS011;11062;51.164;16.924;2023-02-28T06:06:45;38.58;;;16.23;;
21800;SDS011;11062;51.164;16.924;2023-02-28T06:09:18;29.05;;;15.55;;
21800;SDS011;11062;51.164;16.924;2023-02-28T06:11:44;32.40;;;16.27;;
21800;SDS011;11062;51.164;16.924;2023-02-28T06:14:14;34.75;;;16.27;;
21800;SDS011;11062;51.164;16.924;2023-02-28T06:16:43;35.67;;;15.98;;
21800;SDS011;11062;51.164;16.924;2023-02-28T06:19:18;34.85;;;17.58;;
21800;SDS011;11062;51.164;16.924;2023-02-28T06:21:45;33.38;;;16.13;;
21800;SDS011;11062;51.164;16.924;2023-02-28T06:24:15;29.70;;;16.10;;
21800;SDS011;11062;51.164;16.924;2023-02-28T06:26:42;32.58;;;16.17;;
21800;SDS011;11062;51.164;16.924;2023-02-28T06:29:08;30.38;;;16.80;;
21800;SDS011;11062;51.164;16.924;2023-02-28T06:31:34;37.28;;;16.17;;
21800;SDS011;11062;51.164;16.924;2023-02-28T06:34:00;33.92;;;17.27;;
21800;SDS011;11062;51.164;16.924;2023-02-28T06:36:26;40.65;;;18.02;;
21800;SDS011;11062;51.164;16.924;2023-02-28T06:38:52;35.20;;;16.98;;
21800;SDS011;11062;51.164;16.924;2023-02-28T06:41:25;38.88;;;18.05;;
21800;SDS011;11062;51.164;16.924;2023-02-28T06:43:52;36.78;;;18.23;;
21800;SDS011;11062;51.164;16.924;2023-02-28T06:46:18;33.72;;;17.70;;
21800;SDS011;11062;51.164;16.924;2023-02-28T06:48:45;35.15;;;17.50;;
21800;SDS011;11062;51.164;16.924;2023-02-28T06:51:16;37.70;;;17.85;;
21800;SDS011;11062;51.164;16.924;2023-02-28T06:53:45;33.58;;;17.13;;
21800;SDS011;11062;51.164;16.924;2023-02-28T06:56:12;33.53;;;16.85;;
21800;SDS011;11062;51.164;16.924;2023-02-28T06:58:40;41.05;;;18.02;;
21800;SDS011;11062;51.164;16.924;2023-02-28T07:01:06;30.70;;;16.60;;
21800;SDS011;11062;51.164;16.924;2023-02-28T07:03:36;35.60;;;18.25;;
21800;SDS011;11062;51.164;16.924;2023-02-28T07:06:02;34.72;;;16.95;;
21800;SDS011;11062;51.164;16.924;2023-02-28T07:08:29;33.85;;;16.83;;
21800;SDS011;11062;51.164;16.924;2023-02-28T07:10:56;34.67;;;17.58;;
21800;SDS011;11062;51.164;16.924;2023-02-28T07:13:23;42.53;;;15.98;;
21800;SDS011;11062;51.164;16.924;2023-02-28T07:15:59;40.97;;;15.82;;
21800;SDS011;11062;51.164;16.924;2023-02-28T07:18:27;29.65;;;15.95;;
21800;SDS011;11062;51.164;16.924;2023-02-28T07:20:54;27.85;;;16.77;;
21800;SDS011;11062;51.164;16.924;2023-02-28T07:23:20;36.15;;;17.60;;
21800;SDS011;11062;51.164;16.924;2023-02-28T07:25:46;39.83;;;19.83;;
21800;SDS011;11062;51.164;16.924;2023-02-28T07:28:12;35.33;;;17.88;;
21800;SDS011;11062;51.164;16.924;2023-02-28T07:30:40;36.83;;;17.15;;
21800;SDS011;11062;51.164;16.924;2023-02-28T07:33:06;31.60;;;16.10;;
21800;SDS011;11062;51.164;16.924;2023-02-28T07:35:32;25.08;;;13.93;;
21800;SDS011;11062;51.164;16.924;2023-02-28T07:37:58;29.90;;;14.15;;
21800;SDS011;11062;51.164;16.924;2023-02-28T07:40:24;29.05;;;14.23;;
21800;SDS011;11062;51.164;16.924;2023-02-28T07:42:51;36.05;;;17.45;;
21800;SDS011;11062;51.164;16.924;2023-02-28T07:45:16;59.38;;;27.42;;
21800;SDS011;11062;51.164;16.924;2023-02-28T07:47:43;35.40;;;16.70;;
21800;SDS011;11062;51.164;16.924;2023-02-28T07:50:11;32.72;;;14.30;;
21800;SDS011;11062;51.164;16.924;2023-02-28T07:52:38;44.40;;;17.35;;
21800;SDS011;11062;51.164;16.924;2023-02-28T07:55:06;36.17;;;14.60;;
21800;SDS011;11062;51.164;16.924;2023-02-28T07:57:34;41.03;;;17.73;;
21800;SDS011;11062;51.164;16.924;2023-02-28T08:00:00;28.58;;;15.02;;
21800;SDS011;11062;51.164;16.924;2023-02-28T08:02:26;46.47;;;20.92;;
21800;SDS011;11062;51.164;16.924;2023-02-28T08:04:52;47.85;;;20.38;;
21800;SDS011;11062;51.164;16.924;2023-02-28T08:07:18;30.13;;;14.85;;
21800;SDS011;11062;51.164;16.924;2023-02-28T08:09:44;25.27;;;14.60;;
21800;SDS011;11062;51.164;16.924;2023-02-28T08:12:10;22.75;;;12.98;;
21800;SDS011;11062;51.164;16.924;2023-02-28T08:14:36;30.20;;;13.20;;
21800;SDS011;11062;51.164;16.924;2023-02-28T08:17:03;24.65;;;13.63;;
21800;SDS011;11062;51.164;16.924;2023-02-28T08:19:29;23.48;;;13.75;;
21800;SDS011;11062;51.164;16.924;2023-02-28T08:21:55;44.45;;;20.42;;
21800;SDS011;11062;51.164;16.924;2023-02-28T08:24:22;21.63;;;13.52;;
21800;SDS011;11062;51.164;16.924;2023-02-28T08:26:48;23.42;;;12.35;;
21800;SDS011;11062;51.164;16.924;2023-02-28T08:29:14;22.38;;;11.20;;
21800;SDS011;11062;51.164;16.924;2023-02-28T08:31:42;20.40;;;11.75;;
21800;SDS011;11062;51.164;16.924;2023-02-28T08:34:10;24.98;;;12.25;;
21800;SDS011;11062;51.164;16.924;2023-02-28T08:36:38;25.15;;;13.73;;
21800;SDS011;11062;51.164;16.924;2023-02-28T08:39:04;18.52;;;10.35;;
21800;SDS011;11062;51.164;16.924;2023-02-28T08:41:31;26.40;;;12.13;;
21800;SDS011;11062;51.164;16.924;2023-02-28T08:43:58;21.65;;;11.65;;
21800;SDS011;11062;51.164;16.924;2023-02-28T08:46:24;59.00;;;22.17;;
21800;SDS011;11062;51.164;16.924;2023-02-28T08:48:53;23.73;;;11.93;;
21800;SDS011;11062;51.164;16.924;2023-02-28T08:51:21;15.00;;;7.85;;
21800;SDS011;11062;51.164;16.924;2023-02-28T08:54:00;15.65;;;7.22;;
21800;SDS011;11062;51.164;16.924;2023-02-28T08:56:27;13.23;;;7.57;;
21800;SDS011;11062;51.164;16.924;2023-02-28T08:58:56;16.00;;;9.05;;
21800;SDS011;11062;51.164;16.924;2023-02-28T09:01:26;13.10;;;7.00;;
21800;SDS011;11062;51.164;16.924;2023-02-28T09:03:53;9.65;;;6.05;;
21800;SDS011;11062;51.164;16.924;2023-02-28T09:06:21;11.80;;;6.32;;
21800;SDS011;11062;51.164;16.924;2023-02-28T09:08:48;14.43;;;7.05;;
21800;SDS011;11062;51.164;16.924;2023-02-28T09:11:14;8.93;;;5.35;;
21800;SDS011;11062;51.164;16.924;2023-02-28T09:13:40;9.52;;;5.45;;
21800;SDS011;11062;51.164;16.924;2023-02-28T09:16:08;9.52;;;5.07;;
21800;SDS011;11062;51.164;16.924;2023-02-28T09:18:36;10.15;;;6.18;;
21800;SDS011;11062;51.164;16.924;2023-02-28T09:21:04;12.23;;;5.72;;
21800;SDS011;11062;51.164;16.924;2023-02-28T09:23:31;12.15;;;5.30;;
21800;SDS011;11062;51.164;16.924;2023-02-28T09:25:57;9.15;;;4.55;;
21800;SDS011;11062;51.164;16.924;2023-02-28T09:28:22;8.65;;;5.07;;
21800;SDS011;11062;51.164;16.924;2023-02-28T09:30:50;7.57;;;4.93;;
21800;SDS011;11062;51.164;16.924;2023-02-28T09:33:18;8.27;;;5.38;;
21800;SDS011;11062;51.164;16.924;2023-02-28T09:35:46;9.77;;;6.28;;
21800;SDS011;11062;51.164;16.924;2023-02-28T09:38:15;8.45;;;6.20;;
21800;SDS011;11062;51.164;16.924;2023-02-28T09:43:14;11.82;;;5.40;;
21800;SDS011;11062;51.164;16.924;2023-02-28T09:45:42;6.63;;;4.78;;
21800;SDS011;11062;51.164;16.924;2023-02-28T09:48:18;11.00;;;5.35;;
21800;SDS011;11062;51.164;16.924;2023-02-28T09:50:50;9.30;;;5.68;;
21800;SDS011;11062;51.164;16.924;2023-02-28T09:53:24;7.22;;;4.55;;
21800;SDS011;11062;51.164;16.924;2023-02-28T09:56:01;8.80;;;5.18;;
21800;SDS011;11062;51.164;16.924;2023-02-28T09:58:39;11.18;;;5.68;;
21800;SDS011;11062;51.164;16.924;2023-02-28T10:01:34;8.32;;;5.55;;
21800;SDS011;11062;51.164;16.924;2023-02-28T10:09:52;11.23;;;6.53;;
21800;SDS011;11062;51.164;16.924;2023-02-28T10:12:22;10.27;;;5.88;;
21800;SDS011;11062;51.164;16.924;2023-02-28T10:14:50;13.40;;;7.55;;
21800;SDS011;11062;51.164;16.924;2023-02-28T10:17:23;12.30;;;7.55;;
21800;SDS011;11062;51.164;16.924;2023-02-28T10:19:59;12.07;;;7.07;;
21800;SDS011;11062;51.164;16.924;2023-02-28T10:25:33;10.82;;;6.68;;
21800;SDS011;11062;51.164;16.924;2023-02-28T10:28:16;10.93;;;6.50;;
21800;SDS011;11062;51.164;16.924;2023-02-28T10:30:46;14.40;;;8.02;;
21800;SDS011;11062;51.164;16.924;2023-02-28T10:33:22;12.95;;;8.23;;
21800;SDS011;11062;51.164;16.924;2023-02-28T10:35:52;13.40;;;8.07;;
21800;SDS011;11062;51.164;16.924;2023-02-28T10:38:23;15.43;;;8.18;;
21800;SDS011;11062;51.164;16.924;2023-02-28T10:40:51;19.27;;;9.45;;
21800;SDS011;11062;51.164;16.924;2023-02-28T10:43:28;17.88;;;8.93;;
21800;SDS011;11062;51.164;16.924;2023-02-28T10:48:42;13.38;;;8.60;;
21800;SDS011;11062;51.164;16.924;2023-02-28T10:51:15;12.10;;;7.57;;
21800;SDS011;11062;51.164;16.924;2023-02-28T10:56:21;12.35;;;8.02;;
21800;SDS011;11062;51.164;16.924;2023-02-28T10:59:00;12.48;;;7.63;;
21800;SDS011;11062;51.164;16.924;2023-02-28T11:04:19;12.23;;;7.57;;
21800;SDS011;11062;51.164;16.924;2023-02-28T11:06:58;13.15;;;7.35;;
21800;SDS011;11062;51.164;16.924;2023-02-28T11:09:36;11.85;;;6.97;;
21800;SDS011;11062;51.164;16.924;2023-02-28T11:12:06;8.63;;;6.93;;
21800;SDS011;11062;51.164;16.924;2023-02-28T11:14:49;11.80;;;6.95;;
21800;SDS011;11062;51.164;16.924;2023-02-28T11:17:22;10.30;;;6.90;;
21800;SDS011;11062;51.164;16.924;2023-02-28T11:19:51;16.83;;;6.45;;
21800;SDS011;11062;51.164;16.924;2023-02-28T11:22:20;10.02;;;6.43;;
21800;SDS011;11062;51.164;16.924;2023-02-28T11:24:53;15.15;;;7.57;;
21800;SDS011;11062;51.164;16.924;2023-02-28T11:27:43;11.25;;;6.50;;
21800;SDS011;11062;51.164;16.924;2023-02-28T11:30:29;9.77;;;6.57;;
21800;SDS011;11062;51.164;16.924;2023-02-28T11:33:00;11.15;;;6.78;;
21800;SDS011;11062;51.164;16.924;2023-02-28T11:35:43;13.50;;;7.32;;
21800;SDS011;11062;51.164;16.924;2023-02-28T11:38:10;9.55;;;6.72;;
21800;SDS011;11062;51.164;16.924;2023-02-28T11:40:46;12.18;;;6.75;;
21800;SDS011;11062;51.164;16.924;2023-02-28T11:46:04;11.00;;;6.30;;
21800;SDS011;11062;51.164;16.924;2023-02-28T11:51:33;12.77;;;6.97;;
21800;SDS011;11062;51.164;16.924;2023-02-28T11:54:04;13.05;;;7.63;;
21800;SDS011;11062;51.164;16.924;2023-02-28T11:56:55;11.63;;;7.65;;
21800;SDS011;11062;51.164;16.924;2023-02-28T12:02:20;12.02;;;7.18;;
21800;SDS011;11062;51.164;16.924;2023-02-28T12:07:50;11.38;;;7.70;;
21800;SDS011;11062;51.164;16.924;2023-02-28T12:16:18;13.60;;;8.82;;
21800;SDS011;11062;51.164;16.924;2023-02-28T12:19:03;14.43;;;9.25;;
21800;SDS011;11062;51.164;16.924;2023-02-28T12:25:02;12.68;;;8.75;;
21800;SDS011;11062;51.164;16.924;2023-02-28T12:27:39;14.00;;;9.10;;
21800;SDS011;11062;51.164;16.924;2023-02-28T12:33:03;14.60;;;9.23;;
21800;SDS011;11062;51.164;16.924;2023-02-28T12:35:41;16.35;;;9.45;;
21800;SDS011;11062;51.164;16.924;2023-02-28T12:38:17;14.50;;;10.23;;
21800;SDS011;11062;51.164;16.924;2023-02-28T12:40:56;14.60;;;8.52;;
21800;SDS011;11062;51.164;16.924;2023-02-28T12:43:30;14.48;;;8.85;;
21800;SDS011;11062;51.164;16.924;2023-02-28T12:48:40;15.43;;;8.70;;
21800;SDS011;11062;51.164;16.924;2023-02-28T12:51:11;11.75;;;8.50;;
21800;SDS011;11062;51.164;16.924;2023-02-28T12:57:09;16.00;;;9.07;;
21800;SDS011;11062;51.164;16.924;2023-02-28T12:59:39;15.68;;;9.70;;
21800;SDS011;11062;51.164;16.924;2023-02-28T13:10:56;13.20;;;8.68;;
21800;SDS011;11062;51.164;16.924;2023-02-28T13:13:28;11.65;;;7.97;;
21800;SDS011;11062;51.164;16.924;2023-02-28T13:16:03;14.32;;;8.63;;
21800;SDS011;11062;51.164;16.924;2023-02-28T13:18:34;11.88;;;8.27;;
21800;SDS011;11062;51.164;16.924;2023-02-28T13:26:21;10.55;;;7.70;;
21800;SDS011;11062;51.164;16.924;2023-02-28T13:34:33;12.25;;;7.97;;
21800;SDS011;11062;51.164;16.924;2023-02-28T13:39:57;11.98;;;7.88;;
21800;SDS011;11062;51.164;16.924;2023-02-28T13:42:48;14.43;;;8.75;;
21800;SDS011;11062;51.164;16.924;2023-02-28T13:45:27;14.82;;;9.00;;
21800;SDS011;11062;51.164;16.924;2023-02-28T13:47:56;11.02;;;7.63;;
21800;SDS011;11062;51.164;16.924;2023-02-28T13:50:37;10.77;;;7.57;;
21800;SDS011;11062;51.164;16.924;2023-02-28T13:59:00;12.45;;;8.20;;
21800;SDS011;11062;51.164;16.924;2023-02-28T14:07:20;15.05;;;9.23;;
21800;SDS011;11062;51.164;16.924;2023-02-28T14:09:54;12.35;;;8.95;;
21800;SDS011;11062;51.164;16.924;2023-02-28T14:15:36;12.85;;;9.15;;
21800;SDS011;11062;51.164;16.924;2023-02-28T14:18:13;15.55;;;9.43;;
21800;SDS011;11062;51.164;16.924;2023-02-28T14:20:47;15.32;;;8.43;;
21800;SDS011;11062;51.164;16.924;2023-02-28T14:23:35;12.50;;;9.23;;
21800;SDS011;11062;51.164;16.924;2023-02-28T14:31:29;12.75;;;8.70;;
21800;SDS011;11062;51.164;16.924;2023-02-28T14:37:15;15.38;;;9.38;;
21800;SDS011;11062;51.164;16.924;2023-02-28T14:39:44;13.80;;;9.30;;
21800;SDS011;11062;51.164;16.924;2023-02-28T14:42:31;11.18;;;8.23;;
21800;SDS011;11062;51.164;16.924;2023-02-28T14:45:03;13.60;;;8.80;;
21800;SDS011;11062;51.164;16.924;2023-02-28T14:47:33;13.77;;;9.00;;
21800;SDS011;11062;51.164;16.924;2023-02-28T14:50:00;12.98;;;9.10;;
21800;SDS011;11062;51.164;16.924;2023-02-28T14:52:30;12.85;;;9.15;;
21800;SDS011;11062;51.164;16.924;2023-02-28T14:55:00;12.10;;;9.25;;
21800;SDS011;11062;51.164;16.924;2023-02-28T14:57:33;14.80;;;9.50;;
21800;SDS011;11062;51.164;16.924;2023-02-28T15:00:09;12.90;;;8.95;;
21800;SDS011;11062;51.164;16.924;2023-02-28T15:02:45;12.98;;;9.18;;
21800;SDS011;11062;51.164;16.924;2023-02-28T15:07:43;15.50;;;9.05;;
21800;SDS011;11062;51.164;16.924;2023-02-28T15:11:12;12.95;;;9.48;;
21800;SDS011;11062;51.164;16.924;2023-02-28T15:13:34;14.27;;;9.40;;
21800;SDS011;11062;51.164;16.924;2023-02-28T15:16:04;13.55;;;9.27;;
21800;SDS011;11062;51.164;16.924;2023-02-28T15:21:50;13.43;;;9.32;;
21800;SDS011;11062;51.164;16.924;2023-02-28T15:27:04;12.48;;;8.13;;
21800;SDS011;11062;51.164;16.924;2023-02-28T15:29:46;10.50;;;7.85;;
21800;SDS011;11062;51.164;16.924;2023-02-28T15:32:38;11.57;;;8.45;;
21800;SDS011;11062;51.164;16.924;2023-02-28T15:37:53;15.90;;;8.15;;
21800;SDS011;11062;51.164;16.924;2023-02-28T15:40:37;11.98;;;7.40;;
21800;SDS011;11062;51.164;16.924;2023-02-28T15:43:14;12.73;;;7.17;;
21800;SDS011;11062;51.164;16.924;2023-02-28T15:45:55;11.80;;;7.95;;
21800;SDS011;11062;51.164;16.924;2023-02-28T15:51:18;12.75;;;8.07;;
21800;SDS011;11062;51.164;16.924;2023-02-28T15:56:52;10.25;;;7.07;;
21800;SDS011;11062;51.164;16.924;2023-02-28T15:59:22;12.15;;;7.00;;
21800;SDS011;11062;51.164;16.924;2023-02-28T16:04:35;13.70;;;7.93;;
21800;SDS011;11062;51.164;16.924;2023-02-28T16:07:04;13.93;;;7.57;;
21800;SDS011;11062;51.164;16.924;2023-02-28T16:09:31;12.57;;;7.43;;
21800;SDS011;11062;51.164;16.924;2023-02-28T16:12:01;11.95;;;6.88;;
21800;SDS011;11062;51.164;16.924;2023-02-28T16:14:28;14.75;;;7.13;;
21800;SDS011;11062;51.164;16.924;2023-02-28T16:17:05;12.82;;;7.05;;
21800;SDS011;11062;51.164;16.924;2023-02-28T16:19:39;13.48;;;7.40;;
21800;SDS011;11062;51.164;16.924;2023-02-28T16:22:05;13.90;;;7.72;;
21800;SDS011;11062;51.164;16.924;2023-02-28T16:24:33;27.40;;;8.82;;
21800;SDS011;11062;51.164;16.924;2023-02-28T16:26:59;15.80;;;7.95;;
21800;SDS011;11062;51.164;16.924;2023-02-28T16:29:29;13.55;;;7.20;;
21800;SDS011;11062;51.164;16.924;2023-02-28T16:31:58;14.80;;;7.43;;
21800;SDS011;11062;51.164;16.924;2023-02-28T16:34:29;12.43;;;7.47;;
21800;SDS011;11062;51.164;16.924;2023-02-28T16:36:55;12.98;;;7.80;;
21800;SDS011;11062;51.164;16.924;2023-02-28T16:39:21;16.42;;;8.18;;
21800;SDS011;11062;51.164;16.924;2023-02-28T16:41:47;12.82;;;7.22;;
21800;SDS011;11062;51.164;16.924;2023-02-28T16:46:54;15.55;;;7.63;;
21800;SDS011;11062;51.164;16.924;2023-02-28T16:49:20;19.95;;;8.18;;
21800;SDS011;11062;51.164;16.924;2023-02-28T16:51:46;14.20;;;8.65;;
21800;SDS011;11062;51.164;16.924;2023-02-28T16:54:14;15.27;;;8.27;;
21800;SDS011;11062;51.164;16.924;2023-02-28T16:56:42;16.02;;;8.43;;
21800;SDS011;11062;51.164;16.924;2023-02-28T16:59:09;12.75;;;7.90;;
21800;SDS011;11062;51.164;16.924;2023-02-28T17:01:36;15.10;;;7.85;;
21800;SDS011;11062;51.164;16.924;2023-02-28T17:04:02;13.57;;;7.95;;
21800;SDS011;11062;51.164;16.924;2023-02-28T17:06:29;12.02;;;7.18;;
21800;SDS011;11062;51.164;16.924;2023-02-28T17:09:01;11.40;;;6.85;;
21800;SDS011;11062;51.164;16.924;2023-02-28T17:11:27;13.00;;;8.25;;
21800;SDS011;11062;51.164;16.924;2023-02-28T17:13:56;13.25;;;8.40;;
21800;SDS011;11062;51.164;16.924;2023-02-28T17:16:25;14.52;;;8.80;;
21800;SDS011;11062;51.164;16.924;2023-02-28T17:18:54;21.00;;;9.23;;